Time;durP1;ratioP1;P1;durP2;ratioP2;P2;SDS_P1;SDS_P2;PMS_P1;PMS_P2;Temp;Humidity;BMP_temperature;BMP_pressure;BME280_temperature;BME280_humidity;BME280_pressure;Samples;Min_cycle;Max_cycle;Signal;HPM_P1;HPM_P2
2023/03/21 00:00:27;;;;;;;;;;;20.50;45.00;;;;;;5052405;28;20362;-61
2023/03/21 00:02:53;;;;;;;;;;;20.50;45.00;;;;;;5071844;28;19921;-57
2023/03/21 00:05:20;;;;;;;;;;;20.50;45.10;;;;;;5053388;28;19920;-58
2023/03/21 00:07:47;;;;;;;;;;;20.40;45.00;;;;;;5053572;28;19920;-56
2023/03/21 00:10:14;;;;;;;;;;;20.50;45.10;;;;;;5052707;28;19977;-59
2023/03/21 00:12:41;;;;;;;;;;;20.50;45.10;;;;;;5052706;28;20011;-56
2023/03/21 00:15:10;;;;;;;;;;;20.50;45.10;;;;;;5051474;28;19955;-58
2023/03/21 00:17:38;;;;;;;;;;;20.40;45.00;;;;;;5055819;28;19920;-56
2023/03/21 00:20:05;;;;;;;;;;;20.50;45.10;;;;;;5052724;28;20358;-57
2023/03/21 00:22:34;;;;;;;;;;;20.40;45.00;;;;;;5070253;28;19921;-58
2023/03/21 00:25:01;;;;;;;;;;;20.50;45.10;;;;;;5049783;28;19925;-60
2023/03/21 00:27:27;;;;;;;;;;;20.40;45.10;;;;;;5053343;28;19970;-58
2023/03/21 00:29:54;;;;;;;;;;;20.40;45.10;;;;;;5052731;28;19963;-58
2023/03/21 00:32:23;;;;;;;;;;;20.40;45.10;;;;;;5050131;28;20587;-57
2023/03/21 00:34:50;;;;;;;;;;;20.40;45.10;;;;;;5052395;28;19920;-59
2023/03/21 00:37:17;;;;;;;;;;;20.40;45.10;;;;;;5070148;28;19931;-58
2023/03/21 00:39:47;;;;;;;;;;;20.40;45.10;;;;;;5052039;28;19970;-58
2023/03/21 00:42:14;;;;;;;;;;;20.40;45.10;;;;;;5052088;28;19932;-59
2023/03/21 00:44:41;;;;;;;;;;;20.40;45.10;;;;;;5052133;28;19920;-59
2023/03/21 00:47:09;;;;;;;;;;;20.40;45.10;;;;;;5068011;28;19967;-59
2023/03/21 00:49:38;;;;;;;;;;;20.40;45.10;;;;;;5055197;28;19920;-58
2023/03/21 00:52:05;;;;;;;;;;;20.40;45.10;;;;;;5053169;28;19920;-57
2023/03/21 00:54:32;;;;;;;;;;;20.40;45.10;;;;;;5067227;28;19927;-57
2023/03/21 00:57:00;;;;;;;;;;;20.40;45.10;;;;;;5052561;28;19977;-57
2023/03/21 00:59:27;;;;;;;;;;;20.40;45.10;;;;;;5051954;28;20026;-58
2023/03/21 01:01:53;;;;;;;;;;;20.40;45.10;;;;;;5054639;28;19927;-56
2023/03/21 01:04:20;;;;;;;;;;;20.40;45.10;;;;;;5047517;28;20302;-59
2023/03/21 01:06:48;;;;;;;;;;;20.40;45.10;;;;;;5051694;28;20029;-55
2023/03/21 01:09:16;;;;;;;;;;;20.40;45.10;;;;;;5051128;28;19932;-58
2023/03/21 01:11:42;;;;;;;;;;;20.40;45.10;;;;;;5052172;28;19925;-58
2023/03/21 01:14:09;;;;;;;;;;;20.40;45.10;;;;;;5051354;28;19928;-56
2023/03/21 01:16:36;;;;;;;;;;;20.40;45.10;;;;;;5051729;28;19932;-59
2023/03/21 01:19:03;;;;;;;;;;;20.40;45.10;;;;;;5051658;28;19974;-59
2023/03/21 01:21:30;;;;;;;;;;;20.40;45.10;;;;;;5053732;28;20011;-60
2023/03/21 01:24:00;;;;;;;;;;;20.40;45.10;;;;;;5050481;28;19971;-58
2023/03/21 01:26:27;;;;;;;;;;;20.40;45.10;;;;;;5051715;28;19954;-58
2023/03/21 01:28:54;;;;;;;;;;;20.40;45.10;;;;;;5051391;28;19921;-58
2023/03/21 01:31:21;;;;;;;;;;;20.40;45.10;;;;;;5048705;28;19939;-58
2023/03/21 01:33:47;;;;;;;;;;;20.40;45.10;;;;;;5069636;28;19942;-57
2023/03/21 01:36:15;;;;;;;;;;;20.40;45.10;;;;;;5051421;28;19954;-58
2023/03/21 01:38:41;;;;;;;;;;;20.40;45.10;;;;;;5049037;28;20315;-58
2023/03/21 01:41:11;;;;;;;;;;;20.40;45.10;;;;;;5072035;28;19951;-56
2023/03/21 01:43:39;;;;;;;;;;;20.40;45.10;;;;;;5067385;28;19932;-57
2023/03/21 01:46:08;;;;;;;;;;;20.40;45.80;;;;;;5051501;28;19920;-60
2023/03/21 01:48:34;;;;;;;;;;;20.40;45.10;;;;;;5050704;28;19986;-57
2023/03/21 01:51:02;;;;;;;;;;;20.40;45.10;;;;;;5048705;28;19924;-57
2023/03/21 01:53:29;;;;;;;;;;;20.40;45.10;;;;;;5050889;28;19984;-58
2023/03/21 01:55:56;;;;;;;;;;;20.40;45.10;;;;;;5049896;28;19932;-61
2023/03/21 01:58:24;;;;;;;;;;;20.40;45.20;;;;;;5051124;28;19949;-58
2023/03/21 02:00:51;;;;;;;;;;;20.40;45.20;;;;;;5069740;28;19924;-58
2023/03/21 02:03:18;;;;;;;;;;;20.40;45.20;;;;;;5051547;28;19921;-58
2023/03/21 02:05:50;;;;;;;;;;;20.40;45.20;;;;;;5051877;28;19927;-57
2023/03/21 02:08:17;;;;;;;;;;;20.40;45.20;;;;;;5063894;28;19920;-60
2023/03/21 02:10:45;;;;;;;;;;;20.40;45.20;;;;;;5061090;28;19982;-58
2023/03/21 02:13:12;;;;;;;;;;;20.40;45.20;;;;;;5051467;28;19928;-58
2023/03/21 02:15:41;;;;;;;;;;;20.40;45.20;;;;;;5051968;28;19927;-56
2023/03/21 02:18:10;;;;;;;;;;;20.40;45.20;;;;;;5069346;28;20325;-61
2023/03/21 02:20:49;;;;;;;;;;;20.50;45.30;;;;;;5069216;28;19982;-58
2023/03/21 02:23:43;;;;;;;;;;;20.50;45.30;;;;;;5057428;28;19939;-58
2023/03/21 02:26:31;;;;;;;;;;;20.40;45.20;;;;;;4977338;28;19933;-59
2023/03/21 02:28:58;;;;;;;;;;;20.40;45.20;;;;;;4966242;28;20107;-56
2023/03/21 02:31:28;;;;;;;;;;;20.40;45.20;;;;;;5053286;28;20425;-58
2023/03/21 02:34:28;;;;;;;;;;;20.40;45.20;;;;;;5053122;28;19932;-59
2023/03/21 02:37:10;;;;;;;;;;;20.40;45.20;;;;;;5029944;28;19921;-58
2023/03/21 02:39:42;;;;;;;;;;;20.40;45.20;;;;;;5012304;28;19960;-58
2023/03/21 02:42:09;;;;;;;;;;;20.40;45.20;;;;;;5036967;28;19932;-56
2023/03/21 02:44:39;;;;;;;;;;;20.40;45.20;;;;;;5065951;28;19920;-60
2023/03/21 02:47:06;;;;;;;;;;;20.40;45.20;;;;;;5054612;28;20054;-57
2023/03/21 02:49:35;;;;;;;;;;;20.40;45.20;;;;;;5054173;28;19931;-57
2023/03/21 02:52:02;;;;;;;;;;;20.40;45.30;;;;;;5054729;28;19927;-58
2023/03/21 02:54:28;;;;;;;;;;;20.40;45.30;;;;;;5053555;28;19920;-59
2023/03/21 02:56:57;;;;;;;;;;;20.40;45.30;;;;;;5051688;28;19920;-57
2023/03/21 02:59:24;;;;;;;;;;;20.40;45.30;;;;;;5066105;28;19920;-58
2023/03/21 03:01:50;;;;;;;;;;;20.40;45.30;;;;;;5070751;28;19940;-58
2023/03/21 03:04:18;;;;;;;;;;;20.40;45.30;;;;;;5053769;28;19966;-60
2023/03/21 03:06:46;;;;;;;;;;;20.40;45.30;;;;;;5072558;28;19920;-56
2023/03/21 03:09:16;;;;;;;;;;;20.40;45.30;;;;;;5054134;28;19954;-61
2023/03/21 03:11:43;;;;;;;;;;;20.40;45.30;;;;;;5072387;28;20278;-59
2023/03/21 03:14:25;;;;;;;;;;;20.40;45.30;;;;;;5081951;28;20320;-58
2023/03/21 03:16:55;;;;;;;;;;;20.40;45.30;;;;;;5062246;28;19970;-58
2023/03/21 03:19:23;;;;;;;;;;;20.40;45.90;;;;;;5053839;28;19950;-56
2023/03/21 03:21:50;;;;;;;;;;;20.40;45.30;;;;;;5072215;28;19920;-58
2023/03/21 03:24:19;;;;;;;;;;;20.40;45.30;;;;;;5061234;28;19920;-57
2023/03/21 03:26:46;;;;;;;;;;;20.40;45.30;;;;;;5053775;28;19960;-58
2023/03/21 03:29:13;;;;;;;;;;;20.40;45.30;;;;;;5053670;28;19970;-63
2023/03/21 03:31:41;;;;;;;;;;;20.40;45.30;;;;;;5071625;28;20324;-56
2023/03/21 03:34:09;;;;;;;;;;;20.40;45.30;;;;;;5050475;28;20329;-60
2023/03/21 03:36:37;;;;;;;;;;;20.40;45.30;;;;;;5053958;28;19920;-56
2023/03/21 03:39:06;;;;;;;;;;;20.40;45.30;;;;;;5053194;28;20340;-57
2023/03/21 03:41:33;;;;;;;;;;;20.40;45.30;;;;;;5053359;28;19925;-58
2023/03/21 03:43:59;;;;;;;;;;;20.40;45.30;;;;;;5053333;28;19978;-59
2023/03/21 03:46:28;;;;;;;;;;;20.40;45.30;;;;;;5053216;28;19928;-58
2023/03/21 03:48:55;;;;;;;;;;;20.40;45.30;;;;;;5053920;28;19920;-58
2023/03/21 03:51:24;;;;;;;;;;;20.40;45.30;;;;;;5048898;28;20064;-58
2023/03/21 03:53:51;;;;;;;;;;;20.40;45.30;;;;;;5053152;28;19924;-57
2023/03/21 03:56:18;;;;;;;;;;;20.40;45.30;;;;;;5053214;28;19925;-60
2023/03/21 03:58:45;;;;;;;;;;;20.40;45.30;;;;;;5065654;28;19927;-56
2023/03/21 04:01:12;;;;;;;;;;;20.40;45.30;;;;;;5091133;28;19924;-57
2023/03/21 04:03:40;;;;;;;;;;;20.40;45.30;;;;;;5062375;28;19924;-58
2023/03/21 04:06:07;;;;;;;;;;;20.40;45.30;;;;;;5053237;28;19920;-59
2023/03/21 04:08:36;;;;;;;;;;;20.40;45.30;;;;;;5051306;28;19921;-57
2023/03/21 04:11:03;;;;;;;;;;;20.40;45.30;;;;;;5053021;28;20370;-59
2023/03/21 04:13:29;;;;;;;;;;;20.40;45.40;;;;;;5052778;28;19921;-58
2023/03/21 04:15:56;;;;;;;;;;;20.40;45.30;;;;;;5052752;28;19925;-58
2023/03/21 04:18:23;;;;;;;;;;;20.40;45.40;;;;;;5053166;28;19982;-56
2023/03/21 04:20:50;;;;;;;;;;;20.40;45.40;;;;;;5052489;28;19966;-57
2023/03/21 04:23:17;;;;;;;;;;;20.40;45.30;;;;;;5051352;28;19943;-58
2023/03/21 04:25:45;;;;;;;;;;;20.40;45.40;;;;;;5051342;28;19920;-56
2023/03/21 04:28:12;;;;;;;;;;;20.40;45.40;;;;;;5056312;28;19963;-57
2023/03/21 04:30:40;;;;;;;;;;;20.40;45.30;;;;;;5053020;28;19924;-58
2023/03/21 04:33:07;;;;;;;;;;;20.40;45.30;;;;;;5052535;28;19921;-60
2023/03/21 04:35:35;;;;;;;;;;;20.40;45.30;;;;;;5070517;28;20353;-58
2023/03/21 04:38:02;;;;;;;;;;;20.40;45.30;;;;;;5070447;28;19929;-58
2023/03/21 04:40:28;;;;;;;;;;;20.40;45.30;;;;;;5037619;28;19963;-56
2023/03/21 04:42:56;;;;;;;;;;;20.40;45.40;;;;;;5041786;28;19932;-61
2023/03/21 04:45:23;;;;;;;;;;;20.40;45.40;;;;;;5051538;28;19921;-60
2023/03/21 04:47:50;;;;;;;;;;;20.40;45.40;;;;;;5052337;28;19921;-58
2023/03/21 04:50:16;;;;;;;;;;;20.40;45.40;;;;;;5052114;28;19990;-58
2023/03/21 04:52:43;;;;;;;;;;;20.40;45.40;;;;;;5052828;28;19967;-58
2023/03/21 04:55:10;;;;;;;;;;;20.40;45.40;;;;;;5045674;28;19925;-58
2023/03/21 04:57:39;;;;;;;;;;;20.40;45.40;;;;;;5050309;28;19924;-55
2023/03/21 05:00:09;;;;;;;;;;;20.40;45.40;;;;;;5075404;28;19964;-58
2023/03/21 05:02:36;;;;;;;;;;;20.40;45.40;;;;;;5051926;28;20011;-58
2023/03/21 05:05:03;;;;;;;;;;;20.40;45.40;;;;;;5051813;28;20452;-59
2023/03/21 05:07:33;;;;;;;;;;;20.40;45.40;;;;;;5051814;28;19921;-59
2023/03/21 05:10:03;;;;;;;;;;;20.40;45.40;;;;;;5051988;28;19970;-59
2023/03/21 05:12:30;;;;;;;;;;;20.40;45.40;;;;;;5049355;28;19920;-60
2023/03/21 05:14:56;;;;;;;;;;;20.40;45.50;;;;;;5069676;28;19920;-59
2023/03/21 05:17:27;;;;;;;;;;;20.40;45.40;;;;;;5051875;28;19928;-60
2023/03/21 05:19:55;;;;;;;;;;;20.40;45.50;;;;;;5087458;28;19924;-58
2023/03/21 05:22:23;;;;;;;;;;;20.40;45.50;;;;;;5071254;28;19973;-58
2023/03/21 05:24:49;;;;;;;;;;;20.40;45.50;;;;;;5055299;28;19925;-60
2023/03/21 05:27:33;;;;;;;;;;;20.40;45.50;;;;;;5051662;28;20015;-61
2023/03/21 05:30:00;;;;;;;;;;;20.40;45.50;;;;;;5066398;28;19963;-63
2023/03/21 05:32:29;;;;;;;;;;;20.40;45.50;;;;;;5051378;28;19982;-58
2023/03/21 05:34:56;;;;;;;;;;;20.40;45.50;;;;;;5051530;28;19921;-60
2023/03/21 05:37:23;;;;;;;;;;;20.40;45.50;;;;;;5048744;28;20324;-59
2023/03/21 05:39:50;;;;;;;;;;;20.40;45.50;;;;;;5053993;28;19927;-58
2023/03/21 05:42:17;;;;;;;;;;;20.40;45.50;;;;;;5068959;28;19924;-60
2023/03/21 05:44:44;;;;;;;;;;;20.40;45.50;;;;;;5053058;28;19920;-58
2023/03/21 05:47:11;;;;;;;;;;;20.40;45.50;;;;;;5066380;28;19924;-60
2023/03/21 05:49:40;;;;;;;;;;;20.40;45.50;;;;;;5053550;28;20017;-58
2023/03/21 05:52:07;;;;;;;;;;;20.40;45.50;;;;;;5050979;28;19963;-58
2023/03/21 05:54:34;;;;;;;;;;;20.40;45.50;;;;;;5050128;28;19985;-58
2023/03/21 05:57:00;;;;;;;;;;;20.40;45.50;;;;;;5069095;28;19927;-58
2023/03/21 05:59:27;;;;;;;;;;;20.40;45.50;;;;;;5054266;28;19964;-59
2023/03/21 06:01:54;;;;;;;;;;;20.40;45.50;;;;;;5053052;28;19966;-59
2023/03/21 06:04:20;;;;;;;;;;;20.40;45.60;;;;;;5054077;28;20386;-56
2023/03/21 06:06:49;;;;;;;;;;;20.40;45.60;;;;;;5054815;28;20003;-60
2023/03/21 06:09:16;;;;;;;;;;;20.40;45.50;;;;;;5054840;28;19948;-59
2023/03/21 06:11:44;;;;;;;;;;;20.40;45.50;;;;;;5052160;28;19931;-57
2023/03/21 06:14:13;;;;;;;;;;;20.40;45.60;;;;;;5072176;28;21053;-58
2023/03/21 06:16:39;;;;;;;;;;;20.40;45.60;;;;;;5054973;28;19920;-60
2023/03/21 06:19:06;;;;;;;;;;;20.40;45.60;;;;;;5053788;28;19963;-59
2023/03/21 06:21:33;;;;;;;;;;;20.40;45.60;;;;;;5054654;28;20358;-57
2023/03/21 06:24:01;;;;;;;;;;;20.40;45.60;;;;;;5055065;28;19932;-64
2023/03/21 06:26:27;;;;;;;;;;;20.40;45.60;;;;;;5051850;28;20426;-56
2023/03/21 06:28:54;;;;;;;;;;;20.40;45.60;;;;;;5053965;28;19959;-58
2023/03/21 06:31:21;;;;;;;;;;;20.40;45.60;;;;;;5054087;28;19962;-58
2023/03/21 06:33:48;;;;;;;;;;;20.40;45.60;;;;;;5072328;28;19920;-60
2023/03/21 06:36:14;;;;;;;;;;;20.40;45.60;;;;;;5053833;28;20018;-59
2023/03/21 06:38:41;;;;;;;;;;;20.40;45.60;;;;;;5057474;28;19970;-54
2023/03/21 06:41:09;;;;;;;;;;;20.40;45.60;;;;;;5062120;28;19920;-60
2023/03/21 06:43:36;;;;;;;;;;;20.40;45.60;;;;;;5067063;28;19920;-58
2023/03/21 06:46:04;;;;;;;;;;;20.40;45.60;;;;;;5072449;28;19925;-58
2023/03/21 06:48:31;;;;;;;;;;;20.40;45.70;;;;;;5054817;28;19921;-58
2023/03/21 06:50:57;;;;;;;;;;;20.40;45.70;;;;;;5037994;28;20024;-58
2023/03/21 06:53:26;;;;;;;;;;;20.40;45.70;;;;;;5053447;28;20298;-60
2023/03/21 06:55:52;;;;;;;;;;;20.40;45.70;;;;;;5062572;28;19924;-56
2023/03/21 06:58:21;;;;;;;;;;;20.40;45.70;;;;;;5069094;28;20503;-58
2023/03/21 07:00:47;;;;;;;;;;;20.40;45.70;;;;;;5074005;28;19974;-58
2023/03/21 07:03:14;;;;;;;;;;;20.40;45.70;;;;;;5056076;28;19920;-58
2023/03/21 07:05:41;;;;;;;;;;;20.40;45.70;;;;;;5059834;28;19924;-59
2023/03/21 07:08:09;;;;;;;;;;;20.40;45.70;;;;;;5052104;28;20041;-59
2023/03/21 07:10:38;;;;;;;;;;;20.40;46.30;;;;;;5056173;28;19959;-58
2023/03/21 07:13:04;;;;;;;;;;;20.40;45.70;;;;;;5057148;28;19927;-60
2023/03/21 07:15:36;;;;;;;;;;;20.40;45.70;;;;;;5061881;28;19920;-59
2023/03/21 07:18:03;;;;;;;;;;;20.40;45.70;;;;;;5067676;28;19924;-56
2023/03/21 07:20:30;;;;;;;;;;;20.40;45.70;;;;;;5056165;28;20018;-57
2023/03/21 07:22:56;;;;;;;;;;;20.40;45.70;;;;;;5049192;28;19928;-58
2023/03/21 07:25:23;;;;;;;;;;;20.40;45.70;;;;;;5056754;28;19924;-56
2023/03/21 07:27:51;;;;;;;;;;;20.40;45.70;;;;;;5051919;28;19920;-56
2023/03/21 07:30:18;;;;;;;;;;;20.40;45.70;;;;;;5049703;28;19975;-57
2023/03/21 07:32:46;;;;;;;;;;;20.40;45.70;;;;;;5058293;28;19920;-58
2023/03/21 07:35:13;;;;;;;;;;;20.40;45.70;;;;;;5058725;28;19935;-59
2023/03/21 07:37:40;;;;;;;;;;;20.40;45.70;;;;;;5071001;28;19931;-59
2023/03/21 07:40:09;;;;;;;;;;;20.40;45.80;;;;;;5068409;28;19966;-59
2023/03/21 07:42:36;;;;;;;;;;;20.40;45.70;;;;;;5053916;28;19926;-58
2023/03/21 07:45:03;;;;;;;;;;;20.40;45.80;;;;;;5065619;28;20370;-59
2023/03/21 07:47:30;;;;;;;;;;;20.40;45.80;;;;;;5052629;28;20015;-60
2023/03/21 07:49:58;;;;;;;;;;;20.40;45.80;;;;;;5073552;28;20383;-60
2023/03/21 07:52:25;;;;;;;;;;;20.40;45.70;;;;;;5056944;28;19951;-58
2023/03/21 07:54:52;;;;;;;;;;;20.40;45.70;;;;;;5055667;28;19921;-59
2023/03/21 07:57:18;;;;;;;;;;;20.40;45.70;;;;;;5056506;28;19944;-59
2023/03/21 07:59:45;;;;;;;;;;;20.40;45.70;;;;;;5058096;28;19947;-61
2023/03/21 08:02:13;;;;;;;;;;;20.40;45.80;;;;;;5058087;28;19935;-58
2023/03/21 08:04:39;;;;;;;;;;;20.40;45.80;;;;;;5069536;28;20282;-57
2023/03/21 08:07:07;;;;;;;;;;;20.40;45.80;;;;;;5054538;28;19970;-60
2023/03/21 08:09:35;;;;;;;;;;;20.40;45.80;;;;;;5049908;28;19920;-57
2023/03/21 08:12:02;;;;;;;;;;;20.40;45.80;;;;;;5052396;28;19943;-58
2023/03/21 08:14:28;;;;;;;;;;;20.40;45.80;;;;;;5069060;28;19951;-61
2023/03/21 08:16:55;;;;;;;;;;;20.40;45.80;;;;;;5054491;28;19920;-54
2023/03/21 08:19:22;;;;;;;;;;;20.40;45.80;;;;;;5069130;28;19932;-56
2023/03/21 08:21:49;;;;;;;;;;;20.40;45.80;;;;;;5051873;28;19981;-59
2023/03/21 08:24:17;;;;;;;;;;;20.40;45.80;;;;;;5066904;28;19927;-61
2023/03/21 08:26:45;;;;;;;;;;;20.40;45.80;;;;;;5053965;28;19931;-57
2023/03/21 08:29:11;;;;;;;;;;;20.40;45.80;;;;;;5055698;28;19924;-58
2023/03/21 08:31:39;;;;;;;;;;;20.40;45.80;;;;;;5050193;28;19933;-57
2023/03/21 08:34:06;;;;;;;;;;;20.40;45.80;;;;;;5056153;28;19921;-59
2023/03/21 08:36:33;;;;;;;;;;;20.40;45.80;;;;;;5068256;28;19920;-56
2023/03/21 08:39:04;;;;;;;;;;;20.40;45.80;;;;;;5057506;28;19925;-56
2023/03/21 08:41:32;;;;;;;;;;;20.40;45.80;;;;;;5054587;28;19921;-55
2023/03/21 08:43:59;;;;;;;;;;;20.40;45.80;;;;;;5051257;28;19974;-59
2023/03/21 08:46:25;;;;;;;;;;;20.40;45.90;;;;;;5057870;28;20235;-58
2023/03/21 08:48:53;;;;;;;;;;;20.40;45.80;;;;;;5056981;28;19943;-60
2023/03/21 08:51:20;;;;;;;;;;;20.40;45.90;;;;;;5059116;28;19999;-58
2023/03/21 08:53:48;;;;;;;;;;;20.40;45.90;;;;;;5068205;28;19924;-56
2023/03/21 08:56:14;;;;;;;;;;;20.40;45.90;;;;;;5054595;28;19925;-58
2023/03/21 08:58:43;;;;;;;;;;;20.40;45.90;;;;;;5052901;28;19924;-58
2023/03/21 09:01:14;;;;;;;;;;;20.40;45.90;;;;;;5066219;28;19932;-60
2023/03/21 09:03:41;;;;;;;;;;;20.40;45.90;;;;;;5058531;28;20373;-58
2023/03/21 09:06:09;;;;;;;;;;;20.40;45.90;;;;;;5050419;28;19921;-59
2023/03/21 09:08:37;;;;;;;;;;;20.40;45.90;;;;;;5055524;28;20263;-59
2023/03/21 09:11:03;;;;;;;;;;;20.40;45.90;;;;;;5053357;28;19980;-58
2023/03/21 09:13:30;;;;;;;;;;;20.40;45.90;;;;;;5055385;28;20362;-60
2023/03/21 09:16:00;;;;;;;;;;;20.40;45.90;;;;;;5068962;28;19932;-58
2023/03/21 09:18:37;;;;;;;;;;;20.40;45.90;;;;;;5051289;28;19920;-59
2023/03/21 09:21:11;;;;;;;;;;;20.40;46.00;;;;;;5067607;28;20002;-61
2023/03/21 09:23:38;;;;;;;;;;;20.50;46.00;;;;;;5053901;28;19920;-57
2023/03/21 09:26:05;;;;;;;;;;;20.40;45.90;;;;;;5067079;28;20018;-60
2023/03/21 09:28:32;;;;;;;;;;;20.40;46.00;;;;;;5060240;28;20358;-58
2023/03/21 09:31:01;;;;;;;;;;;20.40;46.00;;;;;;5061518;28;19970;-59
2023/03/21 09:33:28;;;;;;;;;;;20.50;46.00;;;;;;5071679;28;19920;-60
2023/03/21 09:35:55;;;;;;;;;;;20.50;46.10;;;;;;5068381;28;19943;-60
2023/03/21 09:38:22;;;;;;;;;;;20.50;46.10;;;;;;5063584;28;19924;-58
2023/03/21 09:40:52;;;;;;;;;;;20.50;46.10;;;;;;5066098;28;19974;-55
2023/03/21 09:43:23;;;;;;;;;;;20.50;46.10;;;;;;5063876;28;19925;-58
2023/03/21 09:45:51;;;;;;;;;;;20.50;46.10;;;;;;5063832;28;19932;-61
2023/03/21 09:48:30;;;;;;;;;;;20.50;46.10;;;;;;5070963;28;19954;-58
2023/03/21 09:50:57;;;;;;;;;;;20.50;46.00;;;;;;5066641;28;19927;-61
2023/03/21 09:53:25;;;;;;;;;;;20.50;46.00;;;;;;5069964;28;19990;-56
2023/03/21 09:55:52;;;;;;;;;;;20.50;46.00;;;;;;5057027;28;19960;-59
2023/03/21 09:58:23;;;;;;;;;;;20.50;46.10;;;;;;5071413;28;19930;-60
2023/03/21 10:00:52;;;;;;;;;;;20.50;46.00;;;;;;5067423;28;19924;-59
2023/03/21 10:03:22;;;;;;;;;;;20.50;46.00;;;;;;5072287;28;19921;-59
2023/03/21 10:05:49;;;;;;;;;;;20.50;46.00;;;;;;5063450;28;19927;-57
2023/03/21 10:08:18;;;;;;;;;;;20.50;46.00;;;;;;5071086;28;19997;-59
2023/03/21 10:10:45;;;;;;;;;;;20.50;46.10;;;;;;5070906;28;19932;-56
2023/03/21 10:13:13;;;;;;;;;;;20.50;46.00;;;;;;5070817;28;19921;-57
2023/03/21 10:15:41;;;;;;;;;;;20.50;46.10;;;;;;5062778;28;19924;-59
2023/03/21 10:18:07;;;;;;;;;;;20.50;46.10;;;;;;5066185;28;19991;-59
2023/03/21 10:20:36;;;;;;;;;;;20.50;46.10;;;;;;5054769;28;19970;-61
2023/03/21 10:23:03;;;;;;;;;;;20.50;46.10;;;;;;5045473;28;19925;-58
2023/03/21 10:25:31;;;;;;;;;;;20.50;46.10;;;;;;5071745;28;19924;-60
2023/03/21 10:27:58;;;;;;;;;;;20.50;46.10;;;;;;5065463;28;19924;-59
2023/03/21 10:30:26;;;;;;;;;;;20.50;46.10;;;;;;5067831;28;19925;-62
2023/03/21 10:32:54;;;;;;;;;;;20.50;46.10;;;;;;5070514;28;19955;-58
2023/03/21 10:35:21;;;;;;;;;;;20.50;46.10;;;;;;5065919;28;19976;-57
2023/03/21 10:37:49;;;;;;;;;;;20.50;46.10;;;;;;5063103;28;20001;-55
2023/03/21 10:40:16;;;;;;;;;;;20.50;46.10;;;;;;5066976;28;19925;-57
2023/03/21 10:42:42;;;;;;;;;;;20.50;46.10;;;;;;5059884;28;20020;-57
2023/03/21 10:45:13;;;;;;;;;;;20.50;46.10;;;;;;5070816;28;19955;-59
2023/03/21 10:47:40;;;;;;;;;;;20.50;46.10;;;;;;5072466;28;19928;-55
2023/03/21 10:50:08;;;;;;;;;;;20.50;46.10;;;;;;5069374;28;19952;-57
2023/03/21 10:52:35;;;;;;;;;;;20.50;46.10;;;;;;5071496;28;19956;-55
2023/03/21 10:55:08;;;;;;;;;;;20.50;46.20;;;;;;5072030;28;19966;-59
2023/03/21 10:57:36;;;;;;;;;;;20.50;46.20;;;;;;5054664;28;19920;-60
2023/03/21 11:00:13;;;;;;;;;;;20.50;46.10;;;;;;5070074;28;20036;-58
2023/03/21 11:02:40;;;;;;;;;;;20.50;46.10;;;;;;5068846;28;20015;-56
2023/03/21 11:05:07;;;;;;;;;;;20.50;46.10;;;;;;5065942;28;19986;-57
2023/03/21 11:07:35;;;;;;;;;;;20.50;46.10;;;;;;5078082;28;19920;-57
2023/03/21 11:10:04;;;;;;;;;;;20.50;46.20;;;;;;5068830;28;19978;-58
2023/03/21 11:12:33;;;;;;;;;;;20.50;46.20;;;;;;5068881;28;19952;-56
2023/03/21 11:15:03;;;;;;;;;;;20.50;46.20;;;;;;5065560;28;19946;-61
2023/03/21 11:17:31;;;;;;;;;;;20.50;46.20;;;;;;5068691;28;19920;-57
2023/03/21 11:19:58;;;;;;;;;;;20.50;46.20;;;;;;5070875;28;19960;-57
2023/03/21 11:22:25;;;;;;;;;;;20.50;46.20;;;;;;5068530;28;19920;-57
2023/03/21 11:24:52;;;;;;;;;;;20.50;46.20;;;;;;5070765;28;19932;-58
2023/03/21 11:27:19;;;;;;;;;;;20.50;46.20;;;;;;5070713;28;19924;-57
2023/03/21 11:29:47;;;;;;;;;;;20.50;46.20;;;;;;5070660;28;19924;-57
2023/03/21 11:32:16;;;;;;;;;;;20.50;46.20;;;;;;5056823;28;19964;-55
2023/03/21 11:34:45;;;;;;;;;;;20.50;46.20;;;;;;5062793;28;19929;-56
2023/03/21 11:37:17;;;;;;;;;;;20.50;46.20;;;;;;5056430;28;19925;-58
2023/03/21 11:39:44;;;;;;;;;;;20.50;46.20;;;;;;5053567;28;19921;-59
2023/03/21 11:42:25;;;;;;;;;;;20.50;46.20;;;;;;5053392;28;19928;-57
2023/03/21 11:44:57;;;;;;;;;;;20.50;46.20;;;;;;5070143;28;19974;-57
2023/03/21 11:47:24;;;;;;;;;;;20.50;46.20;;;;;;5071790;28;20067;-55
2023/03/21 11:49:51;;;;;;;;;;;20.50;46.20;;;;;;5059258;28;20282;-55
2023/03/21 11:52:20;;;;;;;;;;;20.50;46.20;;;;;;5049058;28;19931;-58
2023/03/21 11:54:54;;;;;;;;;;;20.50;46.20;;;;;;5063351;28;19989;-56
2023/03/21 11:57:22;;;;;;;;;;;20.50;46.10;;;;;;5064199;28;19924;-58
2023/03/21 11:59:51;;;;;;;;;;;20.50;46.10;;;;;;5058315;28;19974;-58
2023/03/21 12:02:27;;;;;;;;;;;20.50;46.20;;;;;;5068140;28;20298;-55
2023/03/21 12:04:54;;;;;;;;;;;20.50;46.20;;;;;;5068277;28;19920;-55
2023/03/21 12:07:25;;;;;;;;;;;20.50;46.20;;;;;;5070048;28;19928;-55
2023/03/21 12:09:53;;;;;;;;;;;20.50;46.20;;;;;;5067567;28;19959;-56
2023/03/21 12:12:24;;;;;;;;;;;20.50;46.20;;;;;;5060220;28;19924;-56
2023/03/21 12:14:54;;;;;;;;;;;20.50;46.20;;;;;;5054417;28;20274;-58
2023/03/21 12:17:25;;;;;;;;;;;20.50;46.20;;;;;;5057953;28;19931;-59
2023/03/21 12:20:08;;;;;;;;;;;20.50;46.20;;;;;;5052731;28;19920;-56
2023/03/21 12:22:38;;;;;;;;;;;20.50;46.20;;;;;;5043328;28;19930;-55
2023/03/21 12:25:07;;;;;;;;;;;20.50;46.20;;;;;;5062398;28;19936;-57
2023/03/21 12:27:37;;;;;;;;;;;20.50;46.20;;;;;;5054478;28;20381;-58
2023/03/21 12:30:18;;;;;;;;;;;20.50;46.20;;;;;;5055404;28;19927;-58
2023/03/21 12:32:51;;;;;;;;;;;20.50;46.20;;;;;;5066860;28;19920;-58
2023/03/21 12:35:36;;;;;;;;;;;20.50;46.20;;;;;;5054381;28;19920;-53
2023/03/21 12:38:07;;;;;;;;;;;20.50;46.20;;;;;;5059249;28;19982;-58
2023/03/21 12:40:38;;;;;;;;;;;20.50;46.20;;;;;;5055650;28;19924;-56
2023/03/21 12:43:10;;;;;;;;;;;20.50;46.20;;;;;;5055046;28;19927;-54
2023/03/21 12:45:37;;;;;;;;;;;20.50;46.20;;;;;;5057765;28;19932;-57
2023/03/21 12:48:06;;;;;;;;;;;20.50;46.20;;;;;;5071844;28;19920;-57
2023/03/21 12:50:36;;;;;;;;;;;20.50;46.20;;;;;;5039268;28;20382;-54
2023/03/21 12:53:07;;;;;;;;;;;20.50;46.20;;;;;;5057621;28;19920;-56
2023/03/21 12:55:34;;;;;;;;;;;20.60;46.30;;;;;;5054464;28;19947;-57
2023/03/21 12:58:01;;;;;;;;;;;20.50;46.20;;;;;;5061053;28;19928;-57
2023/03/21 13:00:29;;;;;;;;;;;20.60;46.30;;;;;;5057925;28;19957;-60
2023/03/21 13:02:57;;;;;;;;;;;20.60;46.30;;;;;;5057160;28;19921;-58
2023/03/21 13:05:27;;;;;;;;;;;20.60;46.30;;;;;;5070318;28;19920;-58
2023/03/21 13:07:57;;;;;;;;;;;20.60;46.30;;;;;;5057949;28;19928;-55
2023/03/21 13:10:25;;;;;;;;;;;20.60;46.30;;;;;;5072400;28;19963;-59
2023/03/21 13:12:56;;;;;;;;;;;20.60;46.30;;;;;;5037651;28;19924;-58
2023/03/21 13:15:27;;;;;;;;;;;20.60;46.30;;;;;;5057073;28;19927;-59
2023/03/21 13:17:57;;;;;;;;;;;20.60;46.30;;;;;;5055744;28;19925;-55
2023/03/21 13:20:25;;;;;;;;;;;20.60;46.30;;;;;;5056477;28;19935;-55
2023/03/21 13:22:52;;;;;;;;;;;20.60;46.30;;;;;;5064918;28;20308;-56
2023/03/21 13:25:19;;;;;;;;;;;20.60;46.40;;;;;;5057292;28;20312;-55
2023/03/21 13:27:51;;;;;;;;;;;20.60;46.40;;;;;;5053806;28;20030;-53
2023/03/21 13:30:19;;;;;;;;;;;20.60;46.40;;;;;;5056373;28;19928;-55
2023/03/21 13:32:46;;;;;;;;;;;20.60;46.50;;;;;;5065323;28;19924;-55
2023/03/21 13:35:14;;;;;;;;;;;20.60;46.50;;;;;;5052927;28;19981;-53
2023/03/21 13:37:42;;;;;;;;;;;20.60;46.50;;;;;;5054411;28;19951;-54
2023/03/21 13:40:20;;;;;;;;;;;20.60;46.50;;;;;;5051633;28;19928;-55
2023/03/21 13:42:50;;;;;;;;;;;20.60;46.50;;;;;;5067879;28;19940;-55
2023/03/21 13:45:24;;;;;;;;;;;20.60;46.50;;;;;;5054525;28;19943;-53
2023/03/21 13:47:55;;;;;;;;;;;20.60;46.50;;;;;;5066379;28;19959;-53
2023/03/21 13:50:29;;;;;;;;;;;20.60;46.50;;;;;;5050853;28;20449;-54
2023/03/21 13:53:16;;;;;;;;;;;20.60;46.60;;;;;;5051189;28;20324;-53
2023/03/21 13:55:43;;;;;;;;;;;20.60;46.50;;;;;;5050319;28;20052;-57
2023/03/21 13:58:31;;;;;;;;;;;20.60;46.50;;;;;;5054239;28;19925;-55
2023/03/21 14:01:22;;;;;;;;;;;20.60;46.50;;;;;;5049452;28;19962;-56
2023/03/21 14:03:51;;;;;;;;;;;20.60;46.60;;;;;;5033811;28;19924;-53
2023/03/21 14:06:17;;;;;;;;;;;20.60;46.60;;;;;;5054449;28;19921;-55
2023/03/21 14:08:45;;;;;;;;;;;20.50;46.50;;;;;;5068099;28;19986;-54
2023/03/21 14:11:13;;;;;;;;;;;20.50;46.50;;;;;;5054979;28;20374;-50
2023/03/21 14:13:41;;;;;;;;;;;20.50;46.50;;;;;;5055752;28;19926;-56
2023/03/21 14:16:08;;;;;;;;;;;20.50;46.50;;;;;;5052649;28;20094;-57
2023/03/21 14:18:39;;;;;;;;;;;20.50;46.50;;;;;;5057523;28;19936;-57
2023/03/21 14:21:14;;;;;;;;;;;20.50;46.50;;;;;;5071214;28;19974;-55
2023/03/21 14:23:40;;;;;;;;;;;20.50;46.50;;;;;;5071257;28;20369;-51